sensor_id;sensor_type;location;lat;lon;timestamp;pressure;altitude;pressure_sealevel;temperature;humidity
13015;BME280;6573;57.696;11.950;2022-07-29T00:00:31;102093.91;;;16.82;100.00
13015;BME280;6573;57.696;11.950;2022-07-29T00:02:59;102103.63;;;16.87;100.00
13015;BME280;6573;57.696;11.950;2022-07-29T00:05:27;102108.94;;;16.87;100.00
13015;BME280;6573;57.696;11.950;2022-07-29T00:07:55;102100.94;;;16.88;100.00
13015;BME280;6573;57.696;11.950;2022-07-29T00:10:25;102103.63;;;16.87;100.00
13015;BME280;6573;57.696;11.950;2022-07-29T00:12:53;102100.16;;;16.78;100.00
13015;BME280;6573;57.696;11.950;2022-07-29T00:15:21;102098.44;;;16.74;100.00
13015;BME280;6573;57.696;11.950;2022-07-29T00:17:49;102100.25;;;16.66;100.00
13015;BME280;6573;57.696;11.950;2022-07-29T00:20:18;102102.88;;;16.68;100.00
13015;BME280;6573;57.696;11.950;2022-07-29T00:22:46;102102.03;;;16.64;100.00
13015;BME280;6573;57.696;11.950;2022-07-29T00:25:14;102104.75;;;16.57;100.00
13015;BME280;6573;57.696;11.950;2022-07-29T00:27:44;102094.97;;;16.57;100.00
13015;BME280;6573;57.696;11.950;2022-07-29T00:30:12;102105.59;;;16.57;100.00
13015;BME280;6573;57.696;11.950;2022-07-29T00:32:41;102114.50;;;16.56;100.00
13015;BME280;6573;57.696;11.950;2022-07-29T00:35:09;102097.69;;;16.48;100.00
13015;BME280;6573;57.696;11.950;2022-07-29T00:37:55;102105.66;;;16.54;100.00
13015;BME280;6573;57.696;11.950;2022-07-29T00:40:23;102103.88;;;16.53;100.00
13015;BME280;6573;57.696;11.950;2022-07-29T00:42:52;102115.44;;;16.39;100.00
13015;BME280;6573;57.696;11.950;2022-07-29T00:45:21;102105.75;;;16.33;100.00
13015;BME280;6573;57.696;11.950;2022-07-29T00:47:49;102093.41;;;16.23;100.00
13015;BME280;6573;57.696;11.950;2022-07-29T00:50:17;102109.25;;;16.35;100.00
13015;BME280;6573;57.696;11.950;2022-07-29T00:52:46;102107.53;;;16.31;100.00
13015;BME280;6573;57.696;11.950;2022-07-29T00:55:15;102106.66;;;16.28;100.00
13015;BME280;6573;57.696;11.950;2022-07-29T00:57:44;102104.91;;;16.27;100.00
13015;BME280;6573;57.696;11.950;2022-07-29T01:00:16;102112.84;;;16.31;100.00
13015;BME280;6573;57.696;11.950;2022-07-29T01:02:45;102109.25;;;16.38;100.00
13015;BME280;6573;57.696;11.950;2022-07-29T01:05:17;102108.41;;;16.32;100.00
13015;BME280;6573;57.696;11.950;2022-07-29T01:07:46;102109.31;;;16.29;100.00
13015;BME280;6573;57.696;11.950;2022-07-29T01:10:15;102105.81;;;16.15;100.00
13015;BME280;6573;57.696;11.950;2022-07-29T01:12:46;102122.66;;;16.14;100.00
13015;BME280;6573;57.696;11.950;2022-07-29T01:15:17;102116.50;;;16.12;100.00
13015;BME280;6573;57.696;11.950;2022-07-29T01:17:51;102109.41;;;16.08;100.00
13015;BME280;6573;57.696;11.950;2022-07-29T01:20:26;102105.88;;;16.09;100.00
13015;BME280;6573;57.696;11.950;2022-07-29T01:23:11;102121.81;;;16.09;100.00
13015;BME280;6573;57.696;11.950;2022-07-29T01:25:57;102118.28;;;16.10;100.00
13015;BME280;6573;57.696;11.950;2022-07-29T01:29:02;102127.13;;;16.03;100.00
13015;BME280;6573;57.696;11.950;2022-07-29T01:31:42;102125.34;;;16.08;100.00
13015;BME280;6573;57.696;11.950;2022-07-29T01:34:31;102101.50;;;15.96;100.00
13015;BME280;6573;57.696;11.950;2022-07-29T01:37:09;102119.22;;;15.97;100.00
13015;BME280;6573;57.696;11.950;2022-07-29T01:39:46;102114.72;;;16.08;100.00
13015;BME280;6573;57.696;11.950;2022-07-29T01:42:20;102119.19;;;15.98;100.00
13015;BME280;6573;57.696;11.950;2022-07-29T01:44:57;102127.16;;;15.97;100.00
13015;BME280;6573;57.696;11.950;2022-07-29T01:47:37;102120.09;;;15.96;100.00
13015;BME280;6573;57.696;11.950;2022-07-29T01:50:10;102125.38;;;16.02;100.00
13015;BME280;6573;57.696;11.950;2022-07-29T01:52:49;102123.53;;;16.13;100.00
13015;BME280;6573;57.696;11.950;2022-07-29T01:55:20;102127.97;;;16.14;100.00
13015;BME280;6573;57.696;11.950;2022-07-29T01:57:50;102126.25;;;16.07;100.00
13015;BME280;6573;57.696;11.950;2022-07-29T02:00:20;102107.72;;;15.95;100.00
13015;BME280;6573;57.696;11.950;2022-07-29T02:02:50;102123.66;;;15.95;100.00
13015;BME280;6573;57.696;11.950;2022-07-29T02:05:21;102116.56;;;15.94;100.00
13015;BME280;6573;57.696;11.950;2022-07-29T02:07:52;102124.56;;;15.86;100.00
13015;BME280;6573;57.696;11.950;2022-07-29T02:10:25;102111.31;;;15.85;100.00
13015;BME280;6573;57.696;11.950;2022-07-29T02:12:56;102113.91;;;15.91;100.00
13015;BME280;6573;57.696;11.950;2022-07-29T02:15:28;102129.00;;;15.80;100.00
13015;BME280;6573;57.696;11.950;2022-07-29T02:18:00;102113.13;;;15.65;100.00
13015;BME280;6573;57.696;11.950;2022-07-29T02:20:29;102125.50;;;15.69;100.00
13015;BME280;6573;57.696;11.950;2022-07-29T02:22:59;102136.09;;;15.69;100.00
13015;BME280;6573;57.696;11.950;2022-07-29T02:25:29;102136.09;;;15.69;100.00
13015;BME280;6573;57.696;11.950;2022-07-29T02:28:05;102127.22;;;15.82;100.00
13015;BME280;6573;57.696;11.950;2022-07-29T02:30:36;102130.78;;;15.78;100.00
13015;BME280;6573;57.696;11.950;2022-07-29T02:33:08;102141.41;;;15.78;100.00
13015;BME280;6573;57.696;11.950;2022-07-29T02:35:39;102138.72;;;15.79;100.00
13015;BME280;6573;57.696;11.950;2022-07-29T02:38:10;102130.75;;;15.87;100.00
13015;BME280;6573;57.696;11.950;2022-07-29T02:40:58;102137.84;;;15.85;100.00
13015;BME280;6573;57.696;11.950;2022-07-29T02:43:28;102130.78;;;15.78;100.00
13015;BME280;6573;57.696;11.950;2022-07-29T02:46:00;102121.91;;;15.82;100.00
13015;BME280;6573;57.696;11.950;2022-07-29T02:48:43;102134.25;;;15.95;100.00
13015;BME280;6573;57.696;11.950;2022-07-29T02:51:28;102139.53;;;16.01;100.00
13015;BME280;6573;57.696;11.950;2022-07-29T02:54:13;102141.31;;;15.96;100.00
13015;BME280;6573;57.696;11.950;2022-07-29T02:56:44;102143.03;;;16.06;100.00
13015;BME280;6573;57.696;11.950;2022-07-29T02:59:14;102140.38;;;16.12;100.00
13015;BME280;6573;57.696;11.950;2022-07-29T03:01:46;102142.19;;;15.98;100.00
13015;BME280;6573;57.696;11.950;2022-07-29T03:04:16;102147.53;;;15.96;100.00
13015;BME280;6573;57.696;11.950;2022-07-29T03:06:52;102143.16;;;15.82;100.00
13015;BME280;6573;57.696;11.950;2022-07-29T03:09:21;102150.22;;;15.80;100.00
13015;BME280;6573;57.696;11.950;2022-07-29T03:11:50;102157.28;;;15.81;100.00
13015;BME280;6573;57.696;11.950;2022-07-29T03:14:21;102152.03;;;15.78;100.00
13015;BME280;6573;57.696;11.950;2022-07-29T03:16:52;102152.03;;;15.72;100.00
13015;BME280;6573;57.696;11.950;2022-07-29T03:19:21;102150.19;;;15.83;100.00
13015;BME280;6573;57.696;11.950;2022-07-29T03:21:49;102155.53;;;15.71;100.00
13015;BME280;6573;57.696;11.950;2022-07-29T03:24:38;102146.75;;;15.60;100.00
13015;BME280;6573;57.696;11.950;2022-07-29T03:27:06;102158.22;;;15.72;100.00
13015;BME280;6573;57.696;11.950;2022-07-29T03:29:34;102146.75;;;15.63;100.00
13015;BME280;6573;57.696;11.950;2022-07-29T03:32:05;102156.47;;;15.65;100.00
13015;BME280;6573;57.696;11.950;2022-07-29T03:34:35;102152.94;;;15.62;100.00
13015;BME280;6573;57.696;11.950;2022-07-29T03:37:04;102151.16;;;15.59;100.00
13015;BME280;6573;57.696;11.950;2022-07-29T03:39:38;102155.56;;;15.55;100.00
13015;BME280;6573;57.696;11.950;2022-07-29T03:42:10;102155.56;;;15.55;100.00
13015;BME280;6573;57.696;11.950;2022-07-29T03:44:44;102145.00;;;15.52;100.00
13015;BME280;6573;57.696;11.950;2022-07-29T03:47:14;102149.38;;;15.58;100.00
13015;BME280;6573;57.696;11.950;2022-07-29T03:49:47;102152.06;;;15.57;100.00
13015;BME280;6573;57.696;11.950;2022-07-29T03:52:17;102152.06;;;15.53;100.00
13015;BME280;6573;57.696;11.950;2022-07-29T03:54:45;102151.19;;;15.58;100.00
13015;BME280;6573;57.696;11.950;2022-07-29T03:57:14;102153.81;;;15.48;100.00
13015;BME280;6573;57.696;11.950;2022-07-29T03:59:44;102148.53;;;15.54;100.00
13015;BME280;6573;57.696;11.950;2022-07-29T04:02:14;102148.56;;;15.45;100.00
13015;BME280;6573;57.696;11.950;2022-07-29T04:04:48;102137.88;;;15.41;100.00
13015;BME280;6573;57.696;11.950;2022-07-29T04:07:16;102153.84;;;15.45;100.00
13015;BME280;6573;57.696;11.950;2022-07-29T04:09:45;102141.44;;;15.41;100.00
13015;BME280;6573;57.696;11.950;2022-07-29T04:12:13;102162.66;;;15.53;100.00
13015;BME280;6573;57.696;11.950;2022-07-29T04:14:41;102160.88;;;15.55;100.00
13015;BME280;6573;57.696;11.950;2022-07-29T04:17:09;102152.03;;;15.66;100.00
13015;BME280;6573;57.696;11.950;2022-07-29T04:19:38;102159.09;;;15.61;100.00
13015;BME280;6573;57.696;11.950;2022-07-29T04:22:07;102158.25;;;15.60;100.00
13015;BME280;6573;57.696;11.950;2022-07-29T04:24:35;102145.88;;;15.50;100.00
13015;BME280;6573;57.696;11.950;2022-07-29T04:27:03;102166.19;;;15.69;100.00
13015;BME280;6573;57.696;11.950;2022-07-29T04:29:31;102161.75;;;15.61;100.00
13015;BME280;6573;57.696;11.950;2022-07-29T04:31:59;102160.88;;;15.62;100.00
13015;BME280;6573;57.696;11.950;2022-07-29T04:34:27;102152.03;;;15.69;100.00
13015;BME280;6573;57.696;11.950;2022-07-29T04:36:57;102161.75;;;15.70;100.00
13015;BME280;6573;57.696;11.950;2022-07-29T04:39:25;102157.31;;;15.75;100.00
13015;BME280;6573;57.696;11.950;2022-07-29T04:41:56;102157.31;;;15.78;100.00
13015;BME280;6573;57.696;11.950;2022-07-29T04:44:24;102157.28;;;15.90;100.00
13015;BME280;6573;57.696;11.950;2022-07-29T04:46:55;102165.25;;;15.90;100.00
13015;BME280;6573;57.696;11.950;2022-07-29T04:49:23;102161.69;;;15.92;100.00
13015;BME280;6573;57.696;11.950;2022-07-29T04:51:51;102169.66;;;15.97;100.00
13015;BME280;6573;57.696;11.950;2022-07-29T04:54:21;102168.75;;;15.99;100.00
13015;BME280;6573;57.696;11.950;2022-07-29T04:56:51;102166.97;;;16.04;100.00
13015;BME280;6573;57.696;11.950;2022-07-29T04:59:19;102175.78;;;16.09;100.00
13015;BME280;6573;57.696;11.950;2022-07-29T05:01:47;102180.16;;;16.15;100.00
13015;BME280;6573;57.696;11.950;2022-07-29T05:04:15;102166.91;;;16.15;100.00
13015;BME280;6573;57.696;11.950;2022-07-29T05:06:44;102174.84;;;16.24;100.00
13015;BME280;6573;57.696;11.950;2022-07-29T05:09:12;102173.94;;;16.28;100.00
13015;BME280;6573;57.696;11.950;2022-07-29T05:11:42;102155.38;;;16.19;100.00
13015;BME280;6573;57.696;11.950;2022-07-29T05:14:10;102157.94;;;16.40;100.00
13015;BME280;6573;57.696;11.950;2022-07-29T05:16:39;102164.97;;;16.49;100.00
13015;BME280;6573;57.696;11.950;2022-07-29T05:19:08;102167.63;;;16.56;100.00
13015;BME280;6573;57.696;11.950;2022-07-29T05:21:40;102174.72;;;16.54;100.00
13015;BME280;6573;57.696;11.950;2022-07-29T05:24:08;102170.28;;;16.56;100.00
13015;BME280;6573;57.696;11.950;2022-07-29T05:26:36;102171.16;;;16.58;100.00
13015;BME280;6573;57.696;11.950;2022-07-29T05:29:07;102159.63;;;16.61;100.00
13015;BME280;6573;57.696;11.950;2022-07-29T05:31:55;102153.41;;;16.66;100.00
13015;BME280;6573;57.696;11.950;2022-07-29T05:34:23;102148.06;;;16.69;100.00
13015;BME280;6573;57.696;11.950;2022-07-29T05:36:51;102160.38;;;16.79;100.00
13015;BME280;6573;57.696;11.950;2022-07-29T05:39:20;102125.06;;;16.62;100.00
13015;BME280;6573;57.696;11.950;2022-07-29T05:42:08;102163.88;;;16.88;100.00
13015;BME280;6573;57.696;11.950;2022-07-29T05:44:39;102158.53;;;16.91;100.00
13015;BME280;6573;57.696;11.950;2022-07-29T05:47:07;102164.69;;;16.99;100.00
13015;BME280;6573;57.696;11.950;2022-07-29T05:49:35;102145.22;;;16.94;100.00
13015;BME280;6573;57.696;11.950;2022-07-29T05:52:04;102166.31;;;17.12;100.00
13015;BME280;6573;57.696;11.950;2022-07-29T05:54:32;102152.09;;;17.19;100.00
13015;BME280;6573;57.696;11.950;2022-07-29T05:57:01;102158.28;;;17.24;100.00
13015;BME280;6573;57.696;11.950;2022-07-29T05:59:29;102163.50;;;17.30;100.00
13015;BME280;6573;57.696;11.950;2022-07-29T06:01:59;102165.19;;;17.40;100.00
13015;BME280;6573;57.696;11.950;2022-07-29T06:04:27;102158.06;;;17.45;100.00
13015;BME280;6573;57.696;11.950;2022-07-29T06:06:55;102156.22;;;17.50;100.00
13015;BME280;6573;57.696;11.950;2022-07-29T06:09:23;102161.56;;;17.50;100.00
13015;BME280;6573;57.696;11.950;2022-07-29T06:11:52;102160.56;;;17.62;100.00
13015;BME280;6573;57.696;11.950;2022-07-29T06:14:20;102152.50;;;17.69;100.00
13015;BME280;6573;57.696;11.950;2022-07-29T06:16:48;102166.63;;;17.77;100.00
13015;BME280;6573;57.696;11.950;2022-07-29T06:19:18;102162.16;;;17.81;100.00
13015;BME280;6573;57.696;11.950;2022-07-29T06:21:47;102158.47;;;17.92;100.00
13015;BME280;6573;57.696;11.950;2022-07-29T06:24:16;102145.16;;;17.92;100.00
13015;BME280;6573;57.696;11.950;2022-07-29T06:26:44;102160.97;;;18.04;100.00
13015;BME280;6573;57.696;11.950;2022-07-29T06:29:12;102164.50;;;18.06;100.00
13015;BME280;6573;57.696;11.950;2022-07-29T06:31:41;102161.84;;;18.08;100.00
13015;BME280;6573;57.696;11.950;2022-07-29T06:34:09;102167.97;;;18.15;100.00
13015;BME280;6573;57.696;11.950;2022-07-29T06:36:38;102167.00;;;18.19;100.00
13015;BME280;6573;57.696;11.950;2022-07-29T06:39:07;102163.38;;;18.26;100.00
13015;BME280;6573;57.696;11.950;2022-07-29T06:41:38;102146.53;;;18.24;100.00
13015;BME280;6573;57.696;11.950;2022-07-29T06:44:06;102163.25;;;18.35;100.00
13015;BME280;6573;57.696;11.950;2022-07-29T06:46:34;102159.72;;;18.36;100.00
13015;BME280;6573;57.696;11.950;2022-07-29T06:49:03;102162.31;;;18.39;100.00
13015;BME280;6573;57.696;11.950;2022-07-29T06:51:31;102162.22;;;18.48;100.00
13015;BME280;6573;57.696;11.950;2022-07-29T06:54:01;102149.00;;;18.37;100.00
13015;BME280;6573;57.696;11.950;2022-07-29T06:56:33;102160.47;;;18.47;100.00
13015;BME280;6573;57.696;11.950;2022-07-29T06:59:06;102151.50;;;18.51;100.00
13015;BME280;6573;57.696;11.950;2022-07-29T07:01:35;102168.38;;;18.53;100.00
13015;BME280;6573;57.696;11.950;2022-07-29T07:04:04;102159.50;;;18.52;100.00
13015;BME280;6573;57.696;11.950;2022-07-29T07:06:32;102156.69;;;18.63;100.00
13015;BME280;6573;57.696;11.950;2022-07-29T07:09:02;102158.34;;;18.70;100.00
13015;BME280;6573;57.696;11.950;2022-07-29T07:11:30;102163.56;;;18.76;100.00
13015;BME280;6573;57.696;11.950;2022-07-29T07:13:58;102159.97;;;18.80;100.00
13015;BME280;6573;57.696;11.950;2022-07-29T07:16:40;102152.78;;;18.84;100.00
13015;BME280;6573;57.696;11.950;2022-07-29T07:19:08;102168.59;;;18.97;100.00
13015;BME280;6573;57.696;11.950;2022-07-29T07:21:39;102158.72;;;19.02;100.00
13015;BME280;6573;57.696;11.950;2022-07-29T07:24:10;102164.78;;;19.10;100.00
13015;BME280;6573;57.696;11.950;2022-07-29T07:26:38;102164.78;;;19.10;100.00
13015;BME280;6573;57.696;11.950;2022-07-29T07:29:06;102141.88;;;19.00;100.00
13015;BME280;6573;57.696;11.950;2022-07-29T07:31:36;102166.75;;;19.02;100.00
13015;BME280;6573;57.696;11.950;2022-07-29T07:34:04;102155.25;;;18.96;100.00
13015;BME280;6573;57.696;11.950;2022-07-29T07:36:33;102157.69;;;19.12;100.00
13015;BME280;6573;57.696;11.950;2022-07-29T07:39:01;102171.81;;;19.17;100.00
13015;BME280;6573;57.696;11.950;2022-07-29T07:41:31;102169.16;;;19.16;100.00
13015;BME280;6573;57.696;11.950;2022-07-29T07:44:00;102159.34;;;19.18;100.00
13015;BME280;6573;57.696;11.950;2022-07-29T07:46:28;102168.09;;;19.27;100.00
13015;BME280;6573;57.696;11.950;2022-07-29T07:48:56;102159.16;;;19.28;100.00
13015;BME280;6573;57.696;11.950;2022-07-29T07:51:24;102171.47;;;19.35;100.00
13015;BME280;6573;57.696;11.950;2022-07-29T07:53:53;102171.19;;;19.54;100.00
13015;BME280;6573;57.696;11.950;2022-07-29T07:56:23;102148.97;;;20.40;100.00
13015;BME280;6573;57.696;11.950;2022-07-29T07:58:52;102159.63;;;21.18;100.00
13015;BME280;6573;57.696;11.950;2022-07-29T08:01:21;102125.38;;;21.63;100.00
13015;BME280;6573;57.696;11.950;2022-07-29T08:03:49;102153.34;;;22.18;100.00
13015;BME280;6573;57.696;11.950;2022-07-29T08:06:18;102158.41;;;22.56;100.00
13015;BME280;6573;57.696;11.950;2022-07-29T08:08:46;102159.13;;;22.90;100.00
13015;BME280;6573;57.696;11.950;2022-07-29T08:11:14;102156.56;;;23.13;100.00
13015;BME280;6573;57.696;11.950;2022-07-29T08:13:43;102157.88;;;22.74;100.00
13015;BME280;6573;57.696;11.950;2022-07-29T08:16:13;102164.44;;;23.19;100.00
13015;BME280;6573;57.696;11.950;2022-07-29T08:18:43;102160.69;;;23.50;100.00
13015;BME280;6573;57.696;11.950;2022-07-29T08:21:12;102164.34;;;23.49;100.00
13015;BME280;6573;57.696;11.950;2022-07-29T08:23:42;102160.69;;;23.50;100.00
13015;BME280;6573;57.696;11.950;2022-07-29T08:26:26;102133.16;;;22.91;100.00
13015;BME280;6573;57.696;11.950;2022-07-29T08:28:54;102153.47;;;22.99;100.00
13015;BME280;6573;57.696;11.950;2022-07-29T08:31:24;102162.94;;;22.83;100.00
13015;BME280;6573;57.696;11.950;2022-07-29T08:33:52;102160.88;;;22.91;100.00
13015;BME280;6573;57.696;11.950;2022-07-29T08:36:20;102155.31;;;22.97;100.00
13015;BME280;6573;57.696;11.950;2022-07-29T08:38:48;102159.47;;;23.34;100.00
13015;BME280;6573;57.696;11.950;2022-07-29T08:41:18;102165.44;;;23.15;100.00
13015;BME280;6573;57.696;11.950;2022-07-29T08:43:46;102152.50;;;22.74;100.00
13015;BME280;6573;57.696;11.950;2022-07-29T08:46:15;102147.97;;;22.47;100.00
13015;BME280;6573;57.696;11.950;2022-07-29T08:48:46;102160.66;;;22.71;100.00
13015;BME280;6573;57.696;11.950;2022-07-29T08:51:15;102158.16;;;22.65;100.00
13015;BME280;6573;57.696;11.950;2022-07-29T08:53:48;102150.56;;;22.21;100.00
13015;BME280;6573;57.696;11.950;2022-07-29T08:56:18;102156.34;;;22.06;100.00
13015;BME280;6573;57.696;11.950;2022-07-29T08:58:47;102164.09;;;22.16;100.00
13015;BME280;6573;57.696;11.950;2022-07-29T09:01:23;102158.19;;;21.73;100.00
13015;BME280;6573;57.696;11.950;2022-07-29T09:04:06;102159.16;;;21.70;100.00
13015;BME280;6573;57.696;11.950;2022-07-29T09:06:37;102164.16;;;21.82;100.00
13015;BME280;6573;57.696;11.950;2022-07-29T09:09:08;102163.41;;;22.39;100.00
13015;BME280;6573;57.696;11.950;2022-07-29T09:11:37;102160.66;;;22.97;100.00
13015;BME280;6573;57.696;11.950;2022-07-29T09:14:05;102138.09;;;23.04;100.00
13015;BME280;6573;57.696;11.950;2022-07-29T09:16:48;102158.53;;;23.08;100.00
13015;BME280;6573;57.696;11.950;2022-07-29T09:19:23;102167.72;;;23.01;100.00
13015;BME280;6573;57.696;11.950;2022-07-29T09:21:51;102159.69;;;23.00;100.00
13015;BME280;6573;57.696;11.950;2022-07-29T09:24:41;102152.09;;;22.86;100.00
13015;BME280;6573;57.696;11.950;2022-07-29T09:27:18;102158.53;;;22.81;100.00
13015;BME280;6573;57.696;11.950;2022-07-29T09:29:47;102164.41;;;22.93;100.00
13015;BME280;6573;57.696;11.950;2022-07-29T09:32:15;102151.19;;;22.58;100.00
13015;BME280;6573;57.696;11.950;2022-07-29T09:34:45;102165.88;;;22.76;100.00
13015;BME280;6573;57.696;11.950;2022-07-29T09:37:25;102166.56;;;22.82;100.00
13015;BME280;6573;57.696;11.950;2022-07-29T09:39:53;102173.56;;;22.86;100.00
13015;BME280;6573;57.696;11.950;2022-07-29T09:42:28;102170.25;;;22.78;100.00
13015;BME280;6573;57.696;11.950;2022-07-29T09:44:56;102177.56;;;22.73;100.00
13015;BME280;6573;57.696;11.950;2022-07-29T09:47:40;102170.25;;;22.78;100.00
13015;BME280;6573;57.696;11.950;2022-07-29T09:50:11;102162.84;;;22.86;100.00
13015;BME280;6573;57.696;11.950;2022-07-29T09:52:47;102156.75;;;22.81;100.00
13015;BME280;6573;57.696;11.950;2022-07-29T09:55:16;102157.38;;;22.89;100.00
13015;BME280;6573;57.696;11.950;2022-07-29T09:57:46;102161.47;;;22.73;100.00
13015;BME280;6573;57.696;11.950;2022-07-29T10:00:16;102154.97;;;22.80;100.00
13015;BME280;6573;57.696;11.950;2022-07-29T10:02:46;102153.88;;;22.87;100.00
13015;BME280;6573;57.696;11.950;2022-07-29T10:05:20;102146.13;;;22.49;100.00
13015;BME280;6573;57.696;11.950;2022-07-29T10:07:50;102150.50;;;22.51;100.00
13015;BME280;6573;57.696;11.950;2022-07-29T10:10:24;102151.47;;;22.49;100.00
13015;BME280;6573;57.696;11.950;2022-07-29T10:12:55;102149.97;;;22.70;100.00
13015;BME280;6573;57.696;11.950;2022-07-29T10:15:28;102135.31;;;22.52;100.00
13015;BME280;6573;57.696;11.950;2022-07-29T10:17:57;102145.69;;;22.64;100.00
13015;BME280;6573;57.696;11.950;2022-07-29T10:20:27;102147.06;;;22.77;100.00
13015;BME280;6573;57.696;11.950;2022-07-29T10:22:56;102152.19;;;22.83;100.00
13015;BME280;6573;57.696;11.950;2022-07-29T10:25:25;102146.69;;;22.88;100.00
13015;BME280;6573;57.696;11.950;2022-07-29T10:27:53;102150.16;;;22.91;100.00
13015;BME280;6573;57.696;11.950;2022-07-29T10:30:23;102145.09;;;22.82;100.00
13015;BME280;6573;57.696;11.950;2022-07-29T10:33:05;102144.63;;;22.70;100.00
13015;BME280;6573;57.696;11.950;2022-07-29T10:35:48;102145.81;;;22.87;100.00
13015;BME280;6573;57.696;11.950;2022-07-29T10:38:38;102141.28;;;22.89;100.00
13015;BME280;6573;57.696;11.950;2022-07-29T10:41:28;102138.53;;;22.91;100.00
13015;BME280;6573;57.696;11.950;2022-07-29T10:44:23;102136.31;;;22.77;100.00
13015;BME280;6573;57.696;11.950;2022-07-29T10:46:53;102113.09;;;22.76;100.00
13015;BME280;6573;57.696;11.950;2022-07-29T10:49:22;102133.16;;;22.91;100.00
13015;BME280;6573;57.696;11.950;2022-07-29T10:52:00;102132.44;;;22.86;100.00
13015;BME280;6573;57.696;11.950;2022-07-29T10:54:42;102134.56;;;22.76;100.00
13015;BME280;6573;57.696;11.950;2022-07-29T10:57:20;102133.63;;;22.77;100.00
13015;BME280;6573;57.696;11.950;2022-07-29T11:00:29;102132.78;;;22.75;100.00
13015;BME280;6573;57.696;11.950;2022-07-29T11:02:59;102127.53;;;22.72;100.00
13015;BME280;6573;57.696;11.950;2022-07-29T11:05:53;102125.19;;;22.89;100.00
13015;BME280;6573;57.696;11.950;2022-07-29T11:08:26;102131.50;;;22.59;100.00
13015;BME280;6573;57.696;11.950;2022-07-29T11:11:30;102127.06;;;22.29;100.00
13015;BME280;6573;57.696;11.950;2022-07-29T11:14:00;102128.47;;;22.42;100.00
13015;BME280;6573;57.696;11.950;2022-07-29T11:17:02;102113.84;;;22.52;100.00
13015;BME280;6573;57.696;11.950;2022-07-29T11:19:33;102129.38;;;22.70;100.00
13015;BME280;6573;57.696;11.950;2022-07-29T11:22:08;102121.84;;;22.53;100.00
13015;BME280;6573;57.696;11.950;2022-07-29T11:24:43;102133.34;;;22.57;100.00
13015;BME280;6573;57.696;11.950;2022-07-29T11:27:17;102117.66;;;22.45;100.00
13015;BME280;6573;57.696;11.950;2022-07-29T11:29:52;102112.47;;;22.39;100.00
13015;BME280;6573;57.696;11.950;2022-07-29T11:32:22;102126.53;;;22.47;100.00
13015;BME280;6573;57.696;11.950;2022-07-29T11:35:12;102117.06;;;22.63;100.00
13015;BME280;6573;57.696;11.950;2022-07-29T11:37:44;102117.00;;;22.66;100.00
13015;BME280;6573;57.696;11.950;2022-07-29T11:40:34;102120.41;;;22.71;100.00
13015;BME280;6573;57.696;11.950;2022-07-29T11:43:02;102134.25;;;22.85;100.00
13015;BME280;6573;57.696;11.950;2022-07-29T11:45:45;102127.41;;;22.75;100.00
13015;BME280;6573;57.696;11.950;2022-07-29T11:48:18;102116.91;;;22.69;100.00
13015;BME280;6573;57.696;11.950;2022-07-29T11:50:59;102111.63;;;22.66;100.00
13015;BME280;6573;57.696;11.950;2022-07-29T11:53:29;102114.72;;;22.80;100.00
13015;BME280;6573;57.696;11.950;2022-07-29T11:56:21;102116.09;;;22.93;100.00
13015;BME280;6573;57.696;11.950;2022-07-29T11:59:02;102114.91;;;23.02;100.00
13015;BME280;6573;57.696;11.950;2022-07-29T12:01:34;102110.09;;;23.11;100.00
13015;BME280;6573;57.696;11.950;2022-07-29T12:04:03;102111.13;;;23.34;100.00
13015;BME280;6573;57.696;11.950;2022-07-29T12:06:32;102105.03;;;23.29;100.00
13015;BME280;6573;57.696;11.950;2022-07-29T12:09:06;102104.41;;;23.20;100.00
13015;BME280;6573;57.696;11.950;2022-07-29T12:11:41;102102.53;;;23.23;100.00
13015;BME280;6573;57.696;11.950;2022-07-29T12:14:26;102105.03;;;23.02;100.00
13015;BME280;6573;57.696;11.950;2022-07-29T12:16:55;102106.03;;;23.25;100.00
13015;BME280;6573;57.696;11.950;2022-07-29T12:19:24;102102.09;;;23.35;100.00
13015;BME280;6573;57.696;11.950;2022-07-29T12:21:54;102100.38;;;23.34;100.00
13015;BME280;6573;57.696;11.950;2022-07-29T12:24:42;102098.34;;;23.42;100.00
13015;BME280;6573;57.696;11.950;2022-07-29T12:27:12;102087.16;;;23.54;100.00
13015;BME280;6573;57.696;11.950;2022-07-29T12:29:55;102096.03;;;23.56;100.00
13015;BME280;6573;57.696;11.950;2022-07-29T12:32:31;102108.75;;;23.51;100.00
13015;BME280;6573;57.696;11.950;2022-07-29T12:35:01;102088.78;;;23.58;100.00
13015;BME280;6573;57.696;11.950;2022-07-29T12:37:33;102086.78;;;23.63;100.00
13015;BME280;6573;57.696;11.950;2022-07-29T12:40:09;102092.16;;;23.63;100.00
13015;BME280;6573;57.696;11.950;2022-07-29T12:42:39;102096.09;;;23.28;100.00
13015;BME280;6573;57.696;11.950;2022-07-29T12:45:08;102095.09;;;23.31;100.00
13015;BME280;6573;57.696;11.950;2022-07-29T12:47:51;102093.22;;;23.33;100.00
13015;BME280;6573;57.696;11.950;2022-07-29T12:50:20;102084.22;;;23.60;100.00
13015;BME280;6573;57.696;11.950;2022-07-29T12:52:52;102099.19;;;23.67;100.00
13015;BME280;6573;57.696;11.950;2022-07-29T12:55:37;102101.38;;;23.56;100.00
13015;BME280;6573;57.696;11.950;2022-07-29T12:58:07;102089.94;;;23.51;100.00
13015;BME280;6573;57.696;11.950;2022-07-29T13:00:36;102097.53;;;23.63;100.00
13015;BME280;6573;57.696;11.950;2022-07-29T13:03:04;102092.38;;;23.57;100.00
13015;BME280;6573;57.696;11.950;2022-07-29T13:05:40;102095.19;;;23.54;100.00